METAR AND TAF INFORMATION
METAR FOR LATI
ADDS - METARS form results

(0406 UTC 23 September 2018)
Data provider http://aviationweather.gov/metar/data/
 
METAR text: LATI 230350Z 14003KT 6000 NSC 15/14 Q1019 NOSIG
Conditions at: LATI (TIRANA , AL) observed 0350 UTC 23 September 2018
Temperature: 15.0°C (59°F)
Dewpoint: 14.0°C (57°F) [RH = 94%]
Pressure (altimeter): 30.09 inches Hg (1019.0 mb)
Winds: from the SE (140 degrees) at 3 MPH (3 knots; 1.5 m/s)
Visibility: 4 miles ( 6 km)
Ceiling: at least 12,000 feet AGL
Clouds: sky clear below 12,000 feet AGL
Weather: no significant weather observed at this time

METAR text: LATI 230320Z 15003KT 6000 NSC 15/14 Q1019 NOSIG
Conditions at: LATI (TIRANA , AL) observed 0320 UTC 23 September 2018
Temperature: 15.0°C (59°F)
Dewpoint: 14.0°C (57°F) [RH = 94%]
Pressure (altimeter): 30.09 inches Hg (1019.0 mb)
Winds: from the SSE (150 degrees) at 3 MPH (3 knots; 1.5 m/s)
Visibility: 4 miles ( 6 km)
Ceiling: at least 12,000 feet AGL
Clouds: sky clear below 12,000 feet AGL
Weather: no significant weather observed at this time

Forecast for: LATI (TIRANA , AL)
Text: TAF LATI 222300Z 2300/2324 VRB03KT 7000 NSC TX31/2312Z TN15/2303Z
Forecast period: 0000 UTC 23 September 2018 to 0000 UTC 24 September 2018
Forecast type: FROM: standard forecast or significant change
Winds: variable direction winds at 3 MPH (3 knots; 1.5 m/s)
Visibility: 4 miles (7 km)
Ceiling: unknown
Clouds: missing
Weather: no significant weather forecast for this period
Text: TEMPO 2310/2316 32010KT 9999 FEW050 SCT140
Forecast period: 1000 to 1600 UTC 23 September 2018
Forecast type: TEMPORARY: The following changes expected for less than half the time period
Winds: from the NW (320 degrees) at 12 MPH (10 knots; 5.1 m/s)
Visibility: 6 or more miles 10+ km)
Ceiling: at least 12,000 feet AGL
Clouds: few clouds at 5000 feet AGL
scattered clouds at 14000 feet AGL
Weather: no significant weather forecast for this period

 AIRPORT MAP

 RUNWAY INFORMATION
Runway 18 Runway length 8971 ft Runway width 148 ft
Runway elevation 109 ft Runway displaced threshold 0 ft Runway heading 174
Runway 36 Runway length 8971 ft Runway width 148 ft
Runway elevation 126 ft Runway displaced threshold 0 ft Runway heading 354

 AIRPORT FREQUENCIES
Type ACC Name ACC Frequency 127.5 MHZ
Type APP Name APP Frequency 133.15 MHZ
Type TWR Name TWR Frequency 122.5 MHZ

 AIRPORT NEAR NAVIGATION AIDS
Type NDB Name Tirana Frequency 290 KHZ
Type VOR-DME Name Tirana Frequency 117700 KHZ


... ... ... ... ... ...

© Copyright 2017 All Rights Reserved. Virtual NATO is in no way affiliated with NATO or any of the NATO Members

NATO Virtual is a volunteer not for profit group of friends with the common interest in promoting enjoyment and education through the simulation of military operations and procedure through the use of operating standards within several flight simulation platforms.

Powered by Virtual Airlines Manager [v2.6.2] Customized by Virtual NATO